Terminal Aerodrome Forecast
Issued by NWS

Home | Current Version | Previous Version | Text Only | Print | Product List | Glossary On
Versions: 1 2 3 4 5 6 7 8 9 10 11 12 13 14 15 16 17
959
FTUS42 KJAX 271120
TAFVQQ
TAF
KVQQ 271120Z 2712/2812 VRB03KT P6SM SCT060 SCT250
     FM271500 28005KT P6SM SCT030
     FM272000 17008KT P6SM SCT050
     FM280100 VRB04KT P6SM FEW030 SCT250=

USA.gov is the U.S. government's official web portal to all federal, state and local government web resources and services.